createdAt,value
2023-04-01T00:00:34.855Z,99.35
2023-04-01T00:01:34.844Z,99.25
2023-04-01T00:02:34.962Z,99.04
2023-04-01T00:03:34.969Z,99.04
2023-04-01T00:04:34.863Z,99.15
2023-04-01T00:05:34.996Z,99.15
2023-04-01T00:06:34.792Z,99.25
2023-04-01T00:07:34.778Z,99.15
2023-04-01T00:08:34.777Z,99.04
2023-04-01T00:09:34.775Z,98.99
2023-04-01T00:10:34.753Z,99.09
2023-04-01T00:11:34.778Z,99.29
2023-04-01T00:12:34.727Z,99.35
2023-04-01T00:13:34.770Z,99.09
2023-04-01T00:14:34.708Z,98.99
2023-04-01T00:15:34.695Z,98.99
2023-04-01T00:16:34.743Z,98.99
2023-04-01T00:17:34.717Z,99.19
2023-04-01T00:18:34.677Z,99.29
2023-04-01T00:19:34.664Z,99.29
2023-04-01T00:20:34.646Z,99.29
2023-04-01T00:21:34.649Z,99.40
2023-04-01T00:22:34.620Z,99.60
2023-04-01T00:23:34.640Z,99.70
2023-04-01T00:24:34.600Z,99.70
2023-04-01T00:25:34.932Z,99.80
2023-04-01T00:26:34.585Z,99.80
2023-04-01T00:27:34.572Z,99.80
2023-04-01T00:28:34.574Z,99.91
2023-04-01T00:29:34.541Z,99.91
2023-04-01T00:30:34.540Z,99.50
2023-04-01T00:31:34.558Z,99.40
2023-04-01T00:32:34.565Z,99.50
2023-04-01T00:33:34.537Z,99.70
2023-04-01T00:34:34.516Z,99.95
2023-04-01T00:35:34.647Z,99.99
2023-04-01T00:36:34.492Z,99.99
2023-04-01T00:37:34.460Z,99.99
2023-04-01T00:38:34.476Z,99.99
2023-04-01T00:39:34.495Z,99.99
2023-04-01T00:40:34.450Z,99.99
2023-04-01T00:41:34.426Z,99.99
2023-04-01T00:42:34.435Z,99.99
2023-04-01T00:43:34.411Z,99.99
2023-04-01T00:44:34.387Z,99.99
2023-04-01T00:45:34.571Z,99.99
2023-04-01T00:46:34.389Z,99.99
2023-04-01T00:47:34.388Z,99.95
2023-04-01T00:48:34.372Z,99.99
2023-04-01T00:49:34.340Z,99.99
2023-04-01T00:50:34.337Z,99.95
2023-04-01T00:51:34.322Z,99.99
2023-04-01T00:52:34.336Z,99.99
2023-04-01T00:53:34.323Z,99.99
2023-04-01T00:54:34.297Z,99.99
2023-04-01T00:55:34.466Z,99.99
2023-04-01T00:56:34.281Z,99.99
2023-04-01T00:57:34.294Z,99.99
2023-04-01T00:58:34.303Z,99.99
2023-04-01T00:59:34.232Z,99.99
2023-04-01T01:00:34.253Z,99.99
2023-04-01T01:01:34.222Z,99.99
2023-04-01T01:02:34.280Z,99.99
2023-04-01T01:03:34.210Z,99.99
2023-04-01T01:04:34.198Z,99.99
2023-04-01T01:05:42.425Z,99.99
2023-04-01T01:06:34.170Z,99.99
2023-04-01T01:07:34.159Z,99.99
2023-04-01T01:08:34.167Z,99.99
2023-04-01T01:09:34.119Z,99.99
2023-04-01T01:10:34.124Z,99.99
2023-04-01T01:11:42.621Z,99.99
2023-04-01T01:12:34.111Z,99.99
2023-04-01T01:13:34.106Z,99.99
2023-04-01T01:14:34.094Z,99.99
2023-04-01T01:15:34.290Z,99.99
2023-04-01T01:16:34.121Z,99.99
2023-04-01T01:17:34.145Z,99.99
2023-04-01T01:18:34.036Z,99.99
2023-04-01T01:19:34.044Z,99.99
2023-04-01T01:20:34.025Z,99.99
2023-04-01T01:21:34.018Z,99.99
2023-04-01T01:22:34.012Z,99.99
2023-04-01T01:23:33.976Z,99.99
2023-04-01T01:24:33.972Z,99.99
2023-04-01T01:25:34.215Z,99.99
2023-04-01T01:26:33.951Z,99.99
2023-04-01T01:27:33.977Z,99.99
2023-04-01T01:28:33.986Z,99.99
2023-04-01T01:29:33.933Z,99.99
2023-04-01T01:30:33.949Z,99.99
2023-04-01T01:31:33.904Z,99.99
2023-04-01T01:32:33.920Z,99.99
2023-04-01T01:33:33.910Z,99.99
2023-04-01T01:34:33.883Z,99.99
2023-04-01T01:35:34.176Z,99.99
2023-04-01T01:36:33.842Z,99.99
2023-04-01T01:37:33.841Z,99.99
2023-04-01T01:38:33.846Z,99.99
2023-04-01T01:39:33.832Z,99.99
2023-04-01T01:40:33.840Z,99.99
2023-04-01T01:41:33.791Z,99.99
2023-04-01T01:42:33.776Z,99.99
2023-04-01T01:43:33.822Z,99.99
2023-04-01T01:44:33.774Z,99.99
2023-04-01T01:45:33.927Z,99.99
2023-04-01T01:46:33.816Z,99.99
2023-04-01T01:47:33.749Z,99.99
2023-04-01T01:48:33.759Z,99.99
2023-04-01T01:49:33.718Z,99.99
2023-04-01T01:50:33.698Z,99.99
2023-04-01T01:51:33.687Z,99.99
2023-04-01T01:52:33.688Z,99.99
2023-04-01T01:53:33.738Z,99.99
2023-04-01T01:54:33.657Z,99.99
2023-04-01T01:55:34.153Z,99.99
2023-04-01T01:56:33.639Z,99.99
2023-04-01T01:57:33.700Z,99.99
2023-04-01T01:58:33.621Z,99.99
2023-04-01T01:59:33.619Z,99.99
2023-04-01T02:00:33.599Z,99.99
2023-04-01T02:01:33.653Z,99.99
2023-04-01T02:02:33.598Z,99.99
2023-04-01T02:03:33.573Z,99.99
2023-04-01T02:04:33.575Z,99.99
2023-04-01T02:05:33.719Z,99.99
2023-04-01T02:06:33.529Z,99.99
2023-04-01T02:07:33.528Z,99.99
2023-04-01T02:08:33.517Z,99.99
2023-04-01T02:09:33.505Z,99.99
2023-04-01T02:10:33.490Z,99.99
2023-04-01T02:11:33.486Z,99.99
2023-04-01T02:12:33.479Z,99.99
2023-04-01T02:13:33.455Z,99.99
2023-04-01T02:14:33.445Z,99.99
2023-04-01T02:15:33.642Z,99.99
2023-04-01T02:16:33.497Z,99.99
2023-04-01T02:17:33.427Z,99.99
2023-04-01T02:18:33.409Z,99.99
2023-04-01T02:19:33.390Z,99.99
2023-04-01T02:20:33.369Z,99.99
2023-04-01T02:21:33.381Z,99.99
2023-04-01T02:22:33.354Z,99.99
2023-04-01T02:23:33.379Z,99.99
2023-04-01T02:24:33.338Z,99.99
2023-04-01T02:25:33.506Z,99.99
2023-04-01T02:26:33.314Z,99.99
2023-04-01T02:27:33.360Z,99.99
2023-04-01T02:28:33.289Z,99.99
2023-04-01T02:29:33.317Z,99.99
2023-04-01T02:30:33.302Z,99.99
2023-04-01T02:31:33.297Z,99.99
2023-04-01T02:32:33.292Z,99.99
2023-04-01T02:33:33.240Z,99.99
2023-04-01T02:34:33.259Z,99.99
2023-04-01T02:35:33.565Z,99.99
2023-04-01T02:36:33.220Z,99.99
2023-04-01T02:37:34.355Z,99.99
2023-04-01T02:38:33.209Z,99.99
2023-04-01T02:39:33.201Z,99.99
2023-04-01T02:40:33.158Z,99.99
2023-04-01T02:41:33.167Z,99.99
2023-04-01T02:42:33.139Z,99.99
2023-04-01T02:43:33.128Z,99.99
2023-04-01T02:44:33.137Z,99.99
2023-04-01T02:45:33.259Z,99.99
2023-04-01T02:46:33.114Z,99.99
2023-04-01T02:47:33.200Z,99.99
2023-04-01T02:48:33.103Z,99.99
2023-04-01T02:49:33.104Z,99.99
2023-04-01T02:50:33.085Z,99.99
2023-04-01T02:51:33.150Z,99.99
2023-04-01T02:52:33.038Z,99.99
2023-04-01T02:53:33.610Z,99.99
2023-04-01T02:54:33.050Z,99.99
2023-04-01T02:55:33.249Z,99.99
2023-04-01T02:56:33.021Z,99.99
2023-04-01T02:57:33.011Z,99.99
2023-04-01T02:58:32.982Z,99.99
2023-04-01T02:59:32.989Z,99.99
2023-04-01T03:00:32.957Z,99.99
2023-04-01T03:01:33.002Z,99.99
2023-04-01T03:02:33.064Z,99.99
2023-04-01T03:03:32.970Z,99.99
2023-04-01T03:04:32.934Z,99.99
2023-04-01T03:05:33.068Z,99.99
2023-04-01T03:06:32.906Z,99.99
2023-04-01T03:07:32.906Z,99.99
2023-04-01T03:08:32.877Z,99.99
2023-04-01T03:09:32.921Z,99.99
2023-04-01T03:10:32.858Z,99.99
2023-04-01T03:11:32.837Z,99.99
2023-04-01T03:12:32.871Z,99.99
2023-04-01T03:13:32.828Z,99.99
2023-04-01T03:14:32.862Z,99.99
2023-04-01T03:15:33.079Z,99.99
2023-04-01T03:16:32.810Z,99.99
2023-04-01T03:17:32.824Z,99.99
2023-04-01T03:18:32.781Z,99.99
2023-04-01T03:19:32.770Z,99.99
2023-04-01T03:20:32.762Z,99.99
2023-04-01T03:21:32.732Z,99.99
2023-04-01T03:22:32.739Z,99.99
2023-04-01T03:23:32.720Z,99.99
2023-04-01T03:24:32.770Z,99.99
2023-04-01T03:25:32.926Z,99.99
2023-04-01T03:26:32.676Z,99.99
2023-04-01T03:27:32.686Z,99.99
2023-04-01T03:28:32.653Z,99.99
2023-04-01T03:29:32.666Z,99.99
2023-04-01T03:30:32.701Z,99.99
2023-04-01T03:31:32.686Z,99.99
2023-04-01T03:32:32.654Z,99.99
2023-04-01T03:33:32.626Z,99.99
2023-04-01T03:34:32.641Z,99.99
2023-04-01T03:35:32.779Z,99.99
2023-04-01T03:36:32.600Z,99.99
2023-04-01T03:37:32.560Z,99.99
2023-04-01T03:38:32.577Z,99.99
2023-04-01T03:39:32.555Z,99.99
2023-04-01T03:40:32.539Z,99.99
2023-04-01T03:41:32.525Z,99.99
2023-04-01T03:42:32.602Z,99.99
2023-04-01T03:43:32.531Z,99.99
2023-04-01T03:44:32.523Z,99.99
2023-04-01T03:45:32.701Z,99.99
2023-04-01T03:46:32.527Z,99.99
2023-04-01T03:47:32.547Z,99.99
2023-04-01T03:48:32.449Z,99.99
2023-04-01T03:49:32.659Z,99.99
2023-04-01T03:50:32.430Z,99.99
2023-04-01T03:51:32.424Z,99.99
2023-04-01T03:52:32.406Z,99.99
2023-04-01T03:53:32.411Z,99.99
2023-04-01T03:54:32.396Z,99.99
2023-04-01T03:55:32.555Z,99.99
2023-04-01T03:56:32.363Z,99.99
2023-04-01T03:57:32.509Z,99.99
2023-04-01T03:58:32.336Z,99.99
2023-04-01T03:59:32.357Z,99.99
2023-04-01T04:00:32.351Z,99.99
2023-04-01T04:01:32.332Z,99.99
2023-04-01T04:02:32.346Z,99.99
2023-04-01T04:03:32.383Z,99.99
2023-04-01T04:04:32.341Z,99.99
2023-04-01T04:05:32.709Z,99.99
2023-04-01T04:06:32.261Z,99.99
2023-04-01T04:07:32.253Z,99.99
2023-04-01T04:08:32.234Z,99.99
2023-04-01T04:09:32.248Z,99.99
2023-04-01T04:10:32.214Z,99.99
2023-04-01T04:11:32.210Z,99.99
2023-04-01T04:12:32.222Z,99.99
2023-04-01T04:13:32.197Z,99.99
2023-04-01T04:14:32.215Z,99.99
2023-04-01T04:15:32.237Z,99.99
2023-04-01T04:16:32.257Z,99.99
2023-04-01T04:17:32.195Z,99.99
2023-04-01T04:18:32.111Z,99.99
2023-04-01T04:19:32.096Z,99.99
2023-04-01T04:20:32.114Z,99.99
2023-04-01T04:21:32.131Z,99.99
2023-04-01T04:22:32.161Z,99.99
2023-04-01T04:23:32.045Z,99.99
2023-04-01T04:24:32.123Z,99.99
2023-04-01T04:25:32.202Z,99.99
2023-04-01T04:26:31.986Z,99.99
2023-04-01T04:27:32.001Z,99.99
2023-04-01T04:28:32.199Z,99.99
2023-04-01T04:29:31.993Z,99.99
2023-04-01T04:30:31.958Z,99.99
2023-04-01T04:31:32.006Z,99.99
2023-04-01T04:32:32.022Z,99.99
2023-04-01T04:33:31.920Z,99.99
2023-04-01T04:34:31.925Z,99.99
2023-04-01T04:35:32.201Z,99.99
2023-04-01T04:36:31.890Z,99.99
2023-04-01T04:37:31.960Z,99.99
2023-04-01T04:38:31.879Z,99.99
2023-04-01T04:39:31.877Z,99.99
2023-04-01T04:40:31.843Z,99.96
2023-04-01T04:41:31.843Z,99.96
2023-04-01T04:42:31.839Z,99.99
2023-04-01T04:43:31.845Z,99.99
2023-04-01T04:44:31.821Z,99.99
2023-04-01T04:45:32.029Z,99.99
2023-04-01T04:46:31.822Z,99.99
2023-04-01T04:47:31.794Z,99.99
2023-04-01T04:48:31.765Z,99.99
2023-04-01T04:49:31.775Z,99.99
2023-04-01T04:50:31.765Z,99.99
2023-04-01T04:51:31.778Z,99.86
2023-04-01T04:52:31.722Z,99.76
2023-04-01T04:53:31.744Z,99.76
2023-04-01T04:54:31.726Z,99.86
2023-04-01T04:55:31.956Z,99.76
2023-04-01T04:56:31.702Z,99.86
2023-04-01T04:57:31.739Z,99.99
2023-04-01T04:58:31.655Z,99.99
2023-04-01T04:59:31.681Z,99.99
2023-04-01T05:00:31.639Z,99.99
2023-04-01T05:01:31.673Z,99.99
2023-04-01T05:02:31.734Z,99.99
2023-04-01T05:03:31.868Z,99.99
2023-04-01T05:04:31.611Z,99.99
2023-04-01T05:05:31.865Z,99.99
2023-04-01T05:06:31.583Z,99.99
2023-04-01T05:07:31.562Z,99.99
2023-04-01T05:08:31.543Z,99.99
2023-04-01T05:09:31.573Z,99.82
2023-04-01T05:10:31.545Z,99.41
2023-04-01T05:11:31.524Z,99.30
2023-04-01T05:12:31.574Z,99.41
2023-04-01T05:13:31.492Z,99.55
2023-04-01T05:14:31.526Z,99.66
2023-04-01T05:15:31.796Z,99.76
2023-04-01T05:16:31.621Z,99.82
2023-04-01T05:17:31.496Z,99.91
2023-04-01T05:18:31.469Z,99.91
2023-04-01T05:19:31.465Z,99.96
2023-04-01T05:20:31.422Z,99.99
2023-04-01T05:21:31.440Z,99.99
2023-04-01T05:22:31.397Z,99.91
2023-04-01T05:23:31.440Z,99.96
2023-04-01T05:24:31.407Z,99.96
2023-04-01T05:25:31.685Z,99.96
2023-04-01T05:26:31.366Z,99.91
2023-04-01T05:27:31.371Z,99.91
2023-04-01T05:28:31.335Z,99.91
2023-04-01T05:29:31.338Z,99.99
2023-04-01T05:30:31.342Z,99.99
2023-04-01T05:31:31.328Z,99.99
2023-04-01T05:32:31.311Z,99.99
2023-04-01T05:33:31.293Z,99.99
2023-04-01T05:34:31.307Z,99.99
2023-04-01T05:35:31.596Z,99.91
2023-04-01T05:36:31.253Z,99.99
2023-04-01T05:37:31.262Z,99.99
2023-04-01T05:38:31.237Z,99.99
2023-04-01T05:39:31.246Z,99.99
2023-04-01T05:40:31.224Z,99.91
2023-04-01T05:41:31.208Z,99.82
2023-04-01T05:42:31.199Z,99.82
2023-04-01T05:43:31.254Z,99.82
2023-04-01T05:44:31.200Z,99.91
2023-04-01T05:45:31.537Z,99.91
2023-04-01T05:46:31.247Z,99.99
2023-04-01T05:47:37.334Z,99.99
2023-04-01T05:48:31.137Z,99.99
2023-04-01T05:49:31.134Z,99.99
2023-04-01T05:50:31.114Z,99.99
2023-04-01T05:51:31.117Z,99.99
2023-04-01T05:52:31.105Z,99.99
2023-04-01T05:53:31.086Z,99.99
2023-04-01T05:54:31.125Z,99.99
2023-04-01T05:55:31.206Z,99.99
2023-04-01T05:56:31.053Z,99.99
2023-04-01T05:57:31.088Z,99.99
2023-04-01T05:58:31.041Z,99.99
2023-04-01T05:59:31.031Z,99.99
2023-04-01T06:00:31.027Z,99.99
2023-04-01T06:01:30.992Z,99.99
2023-04-01T06:02:31.032Z,99.99
2023-04-01T06:03:31.059Z,99.99
2023-04-01T06:04:31.040Z,99.99
2023-04-01T06:05:31.044Z,99.99
2023-04-01T06:06:30.952Z,99.99
2023-04-01T06:07:30.959Z,99.99
2023-04-01T06:08:30.949Z,99.99
2023-04-01T06:09:30.962Z,99.99
2023-04-01T06:10:30.916Z,99.99
2023-04-01T06:11:30.934Z,99.99
2023-04-01T06:12:30.913Z,99.99
2023-04-01T06:13:30.887Z,99.99
2023-04-01T06:14:30.873Z,99.99
2023-04-01T06:15:31.150Z,99.99
2023-04-01T06:16:30.913Z,99.99
2023-04-01T06:17:30.844Z,99.99
2023-04-01T06:18:30.818Z,99.99
2023-04-01T06:19:30.802Z,99.99
2023-04-01T06:20:30.855Z,99.99
2023-04-01T06:21:30.792Z,99.99
2023-04-01T06:22:30.794Z,99.99
2023-04-01T06:23:30.761Z,99.99
2023-04-01T06:24:30.804Z,99.99
2023-04-01T06:25:30.833Z,99.99
2023-04-01T06:26:30.724Z,99.99
2023-04-01T06:27:30.745Z,99.99
2023-04-01T06:28:30.700Z,99.99
2023-04-01T06:29:30.696Z,99.99
2023-04-01T06:30:30.711Z,99.99
2023-04-01T06:31:30.745Z,99.99
2023-04-01T06:32:30.740Z,99.99
2023-04-01T06:33:30.661Z,99.99
2023-04-01T06:34:30.668Z,99.99
2023-04-01T06:35:30.729Z,99.99
2023-04-01T06:36:30.702Z,99.99
2023-04-01T06:37:30.661Z,99.99
2023-04-01T06:38:30.627Z,99.99
2023-04-01T06:39:30.592Z,99.99
2023-04-01T06:40:30.670Z,99.99
2023-04-01T06:41:30.583Z,99.99
2023-04-01T06:42:30.573Z,99.99
2023-04-01T06:43:30.568Z,99.99
2023-04-01T06:44:30.538Z,99.99
2023-04-01T06:45:30.930Z,99.99
2023-04-01T06:46:30.576Z,99.99
2023-04-01T06:47:30.569Z,99.99
2023-04-01T06:48:30.503Z,99.99
2023-04-01T06:49:30.482Z,99.99
2023-04-01T06:50:30.536Z,99.99
2023-04-01T06:51:30.473Z,99.99
2023-04-01T06:52:30.476Z,99.99
2023-04-01T06:53:30.452Z,99.99
2023-04-01T06:54:30.516Z,99.99
2023-04-01T06:55:30.849Z,99.99
2023-04-01T06:56:30.450Z,99.99
2023-04-01T06:57:30.598Z,99.99
2023-04-01T06:58:30.394Z,99.99
2023-04-01T06:59:30.391Z,99.99
2023-04-01T07:00:31.615Z,99.99
2023-04-01T07:01:30.410Z,99.99
2023-04-01T07:02:30.427Z,99.99
2023-04-01T07:03:30.368Z,99.99
2023-04-01T07:04:30.496Z,99.99
2023-04-01T07:05:30.632Z,99.99
2023-04-01T07:06:30.312Z,99.99
2023-04-01T07:07:30.301Z,99.99
2023-04-01T07:08:30.302Z,99.82
2023-04-01T07:09:30.273Z,99.72
2023-04-01T07:10:30.279Z,99.41
2023-04-01T07:11:30.268Z,99.41
2023-04-01T07:12:30.239Z,99.41
2023-04-01T07:13:30.242Z,99.41
2023-04-01T07:14:30.221Z,99.21
2023-04-01T07:15:30.223Z,99.11
2023-04-01T07:16:30.256Z,99.11
2023-04-01T07:17:30.209Z,99.11
2023-04-01T07:18:30.273Z,99.16
2023-04-01T07:19:30.191Z,99.27
2023-04-01T07:20:30.249Z,99.27
2023-04-01T07:21:31.933Z,99.27
2023-04-01T07:22:30.161Z,99.16
2023-04-01T07:23:30.124Z,99.16
2023-04-01T07:24:30.155Z,99.06
2023-04-01T07:25:30.132Z,98.86
2023-04-01T07:26:30.105Z,98.86
2023-04-01T07:27:30.101Z,98.14
2023-04-01T07:28:30.120Z,98.04
2023-04-01T07:29:30.060Z,98.24
2023-04-01T07:30:30.082Z,98.35
2023-04-01T07:31:30.155Z,98.35
2023-04-01T07:32:30.187Z,98.14
2023-04-01T07:33:30.029Z,98.14
2023-04-01T07:34:30.024Z,98.35
2023-04-01T07:35:30.013Z,98.45
2023-04-01T07:36:29.994Z,98.35
2023-04-01T07:37:30.020Z,97.94
2023-04-01T07:38:30.038Z,97.74
2023-04-01T07:39:30.037Z,98.04
2023-04-01T07:40:29.973Z,98.10
2023-04-01T07:41:29.954Z,97.99
2023-04-01T07:42:29.952Z,98.10
2023-04-01T07:43:29.949Z,97.83
2023-04-01T07:44:29.976Z,97.94
2023-04-01T07:45:29.892Z,98.14
2023-04-01T07:46:29.894Z,98.20
2023-04-01T07:47:29.957Z,98.40
2023-04-01T07:48:29.903Z,98.40
2023-04-01T07:49:29.876Z,98.30
2023-04-01T07:50:29.895Z,98.20
2023-04-01T07:51:29.849Z,98.05
2023-04-01T07:52:29.826Z,97.95
2023-04-01T07:53:29.842Z,97.74
2023-04-01T07:54:29.818Z,97.54
2023-04-01T07:55:29.937Z,97.03
2023-04-01T07:56:29.835Z,96.83
2023-04-01T07:57:29.822Z,96.83
2023-04-01T07:58:29.779Z,97.13
2023-04-01T07:59:29.747Z,96.68
2023-04-01T08:00:29.786Z,96.42
2023-04-01T08:01:29.721Z,96.42
2023-04-01T08:02:29.767Z,96.42
2023-04-01T08:03:29.905Z,96.51
2023-04-01T08:04:29.756Z,96.62
2023-04-01T08:05:29.704Z,96.92
2023-04-01T08:06:29.671Z,97.03
2023-04-01T08:07:29.670Z,97.24
2023-04-01T08:08:29.680Z,97.54
2023-04-01T08:09:29.825Z,97.85
2023-04-01T08:10:29.646Z,98.15
2023-04-01T08:11:29.631Z,98.30
2023-04-01T08:12:29.680Z,98.50
2023-04-01T08:13:29.646Z,98.81
2023-04-01T08:14:29.597Z,98.86
2023-04-01T08:15:29.649Z,98.81
2023-04-01T08:16:29.896Z,98.40
2023-04-01T08:17:29.579Z,98.10
2023-04-01T08:18:29.575Z,97.89
2023-04-01T08:19:29.540Z,97.38
2023-04-01T08:20:29.587Z,97.17
2023-04-01T08:21:29.541Z,97.08
2023-04-01T08:22:29.490Z,96.97
2023-04-01T08:23:29.516Z,97.02
2023-04-01T08:24:34.440Z,97.22
2023-04-01T08:25:29.563Z,97.02
2023-04-01T08:26:29.477Z,97.22
2023-04-01T08:27:29.452Z,97.33
2023-04-01T08:28:29.461Z,97.47
2023-04-01T08:29:29.439Z,97.42
2023-04-01T08:30:29.525Z,97.42
2023-04-01T08:31:29.443Z,97.53
2023-04-01T08:32:30.243Z,97.63
2023-04-01T08:33:29.428Z,97.57
2023-04-01T08:34:29.386Z,97.22
2023-04-01T08:35:31.717Z,97.22
2023-04-01T08:36:29.438Z,96.92
2023-04-01T08:37:29.354Z,96.75
2023-04-01T08:38:29.351Z,96.66
2023-04-01T08:39:29.354Z,96.96
2023-04-01T08:40:30.256Z,96.96
2023-04-01T08:41:29.588Z,96.55
2023-04-01T08:42:29.347Z,96.25
2023-04-01T08:43:29.549Z,96.14
2023-04-01T08:44:29.257Z,96.04
2023-04-01T08:45:29.321Z,96.25
2023-04-01T08:46:29.287Z,96.14
2023-04-01T08:47:29.291Z,96.04
2023-04-01T08:48:29.222Z,95.84
2023-04-01T08:49:29.228Z,95.94
2023-04-01T08:50:29.231Z,95.78
2023-04-01T08:51:29.201Z,95.88
2023-04-01T08:52:29.215Z,95.98
2023-04-01T08:53:29.155Z,96.08
2023-04-01T08:54:29.251Z,96.49
2023-04-01T08:55:29.165Z,96.49
2023-04-01T08:56:29.146Z,96.39
2023-04-01T08:57:29.199Z,96.39
2023-04-01T08:58:29.175Z,96.14
2023-04-01T08:59:29.834Z,95.84
2023-04-01T09:00:29.128Z,95.53
2023-04-01T09:01:29.212Z,95.53
2023-04-01T09:02:29.188Z,95.43
2023-04-01T09:03:29.187Z,95.22
2023-04-01T09:04:29.179Z,95.32
2023-04-01T09:05:29.092Z,95.28
2023-04-01T09:06:29.056Z,95.28
2023-04-01T09:07:29.100Z,95.07
2023-04-01T09:08:29.031Z,94.93
2023-04-01T09:09:29.705Z,94.93
2023-04-01T09:10:29.342Z,94.62
2023-04-01T09:11:29.035Z,94.52
2023-04-01T09:12:28.977Z,94.42
2023-04-01T09:13:28.955Z,94.11
2023-04-01T09:14:28.963Z,93.70
2023-04-01T09:15:29.073Z,93.70
2023-04-01T09:16:29.003Z,93.60
2023-04-01T09:17:29.067Z,93.70
2023-04-01T09:18:28.925Z,93.50
2023-04-01T09:19:28.937Z,93.09
2023-04-01T09:20:28.927Z,93.09
2023-04-01T09:21:28.907Z,93.15
2023-04-01T09:22:28.870Z,93.05
2023-04-01T09:23:28.868Z,92.54
2023-04-01T09:24:28.851Z,92.33
2023-04-01T09:25:28.980Z,92.54
2023-04-01T09:26:29.016Z,93.35
2023-04-01T09:27:28.931Z,93.66
2023-04-01T09:28:28.826Z,93.86
2023-04-01T09:29:28.892Z,93.76
2023-04-01T09:30:28.832Z,93.05
2023-04-01T09:31:28.849Z,92.43
2023-04-01T09:32:28.953Z,92.23
2023-04-01T09:33:28.813Z,91.82
2023-04-01T09:34:28.809Z,91.72
2023-04-01T09:35:28.785Z,91.72
2023-04-01T09:36:28.791Z,91.72
2023-04-01T09:37:28.725Z,91.82
2023-04-01T09:38:28.763Z,91.72
2023-04-01T09:39:28.709Z,91.92
2023-04-01T09:40:28.731Z,91.41
2023-04-01T09:41:28.679Z,91.20
2023-04-01T09:42:28.758Z,91.31
2023-04-01T09:43:28.700Z,91.52
2023-04-01T09:44:28.658Z,91.46
2023-04-01T09:45:28.702Z,91.66
2023-04-01T09:46:28.706Z,91.46
2023-04-01T09:47:29.920Z,91.46
2023-04-01T09:48:28.661Z,91.66
2023-04-01T09:49:28.621Z,91.86
2023-04-01T09:50:28.710Z,92.07
2023-04-01T09:51:28.805Z,91.46
2023-04-01T09:52:28.606Z,91.76
2023-04-01T09:53:28.556Z,91.96
2023-04-01T09:54:28.787Z,92.47
2023-04-01T09:55:28.525Z,92.37
2023-04-01T09:56:28.521Z,92.07
2023-04-01T09:57:28.677Z,92.17
2023-04-01T09:58:28.507Z,91.76
2023-04-01T09:59:28.557Z,91.76
2023-04-01T10:00:28.479Z,91.25
2023-04-01T10:01:28.623Z,91.15
2023-04-01T10:02:28.531Z,90.94
2023-04-01T10:03:29.889Z,91.35
2023-04-01T10:04:28.503Z,91.35
2023-04-01T10:05:28.477Z,91.56
2023-04-01T10:06:28.503Z,91.56
2023-04-01T10:07:28.405Z,91.15
2023-04-01T10:08:28.580Z,90.94
2023-04-01T10:09:28.444Z,91.25
2023-04-01T10:10:28.405Z,91.15
2023-04-01T10:11:28.354Z,91.35
2023-04-01T10:12:28.767Z,91.19
2023-04-01T10:13:28.401Z,91.19
2023-04-01T10:14:28.360Z,91.39
2023-04-01T10:15:28.371Z,91.56
2023-04-01T10:16:28.377Z,91.50
2023-04-01T10:17:28.329Z,91.56
2023-04-01T10:18:28.316Z,91.56
2023-04-01T10:19:28.277Z,91.46
2023-04-01T10:20:28.364Z,91.15
2023-04-01T10:21:28.296Z,90.99
2023-04-01T10:22:28.246Z,91.50
2023-04-01T10:23:28.418Z,91.60
2023-04-01T10:24:28.216Z,91.39
2023-04-01T10:25:28.249Z,91.19
2023-04-01T10:26:28.231Z,91.19
2023-04-01T10:27:28.466Z,91.05
2023-04-01T10:28:28.281Z,90.94
2023-04-01T10:29:28.373Z,90.74
2023-04-01T10:30:28.195Z,90.74
2023-04-01T10:31:28.230Z,91.05
2023-04-01T10:32:28.236Z,91.15
2023-04-01T10:33:28.131Z,91.15
2023-04-01T10:34:28.211Z,91.66
2023-04-01T10:35:28.175Z,91.66
2023-04-01T10:36:28.207Z,91.05
2023-04-01T10:37:28.093Z,91.15
2023-04-01T10:38:28.387Z,90.84
2023-04-01T10:39:28.045Z,90.43
2023-04-01T10:40:28.048Z,90.58
2023-04-01T10:41:28.074Z,90.58
2023-04-01T10:42:28.036Z,90.78
2023-04-01T10:43:28.040Z,91.09
2023-04-01T10:44:27.994Z,90.88
2023-04-01T10:45:28.018Z,90.74
2023-04-01T10:46:28.022Z,91.35
2023-04-01T10:47:28.003Z,91.25
2023-04-01T10:48:28.000Z,90.84
2023-04-01T10:49:28.018Z,90.33
2023-04-01T10:50:27.921Z,90.12
2023-04-01T10:51:27.960Z,89.92
2023-04-01T10:52:27.909Z,89.82
2023-04-01T10:53:27.906Z,90.02
2023-04-01T10:54:27.909Z,90.12
2023-04-01T10:55:27.879Z,89.41
2023-04-01T10:56:27.875Z,89.51
2023-04-01T10:57:27.944Z,89.51
2023-04-01T10:58:27.860Z,89.20
2023-04-01T10:59:27.825Z,89.31
2023-04-01T11:00:27.819Z,89.31
2023-04-01T11:01:28.038Z,89.76
2023-04-01T11:02:27.902Z,89.86
2023-04-01T11:03:28.012Z,90.12
2023-04-01T11:04:27.787Z,90.23
2023-04-01T11:05:27.774Z,90.23
2023-04-01T11:06:27.835Z,89.92
2023-04-01T11:07:27.748Z,89.41
2023-04-01T11:08:27.742Z,89.15
2023-04-01T11:09:27.748Z,89.86
2023-04-01T11:10:27.713Z,89.97
2023-04-01T11:11:27.848Z,89.56
2023-04-01T11:12:27.738Z,89.56
2023-04-01T11:13:27.719Z,89.25
2023-04-01T11:14:27.677Z,89.45
2023-04-01T11:15:27.703Z,89.65
2023-04-01T11:16:27.804Z,89.80
2023-04-01T11:17:27.663Z,90.00
2023-04-01T11:18:27.644Z,90.21
2023-04-01T11:19:27.633Z,90.41
2023-04-01T11:20:27.622Z,90.11
2023-04-01T11:21:27.718Z,89.70
2023-04-01T11:22:27.603Z,89.80
2023-04-01T11:23:27.608Z,89.90
2023-04-01T11:24:27.577Z,90.21
2023-04-01T11:25:27.589Z,89.50
2023-04-01T11:26:27.582Z,89.70
2023-04-01T11:27:27.541Z,90.31
2023-04-01T11:28:27.572Z,90.31
2023-04-01T11:29:27.556Z,90.52
2023-04-01T11:30:27.509Z,90.72
2023-04-01T11:31:27.598Z,89.90
2023-04-01T11:32:27.527Z,89.80
2023-04-01T11:33:27.472Z,90.21
2023-04-01T11:34:27.480Z,90.11
2023-04-01T11:35:27.478Z,90.05
2023-04-01T11:36:27.576Z,90.15
2023-04-01T11:37:27.495Z,90.25
2023-04-01T11:38:27.420Z,90.25
2023-04-01T11:39:27.408Z,90.05
2023-04-01T11:40:27.418Z,89.74
2023-04-01T11:41:27.419Z,90.05
2023-04-01T11:42:27.400Z,90.45
2023-04-01T11:43:33.428Z,90.45
2023-04-01T11:44:27.385Z,90.56
2023-04-01T11:45:27.344Z,91.07
2023-04-01T11:46:27.408Z,91.17
2023-04-01T11:47:27.350Z,90.77
2023-04-01T11:48:34.542Z,90.77
2023-04-01T11:49:27.974Z,90.77
2023-04-01T11:50:27.949Z,90.66
2023-04-01T11:51:27.288Z,90.45
2023-04-01T11:52:27.480Z,90.36
2023-04-01T11:53:27.300Z,90.66
2023-04-01T11:54:27.254Z,91.17
2023-04-01T11:55:27.894Z,90.97
2023-04-01T11:56:27.267Z,91.27
2023-04-01T11:57:27.332Z,91.17
2023-04-01T11:58:27.294Z,90.97
2023-04-01T11:59:27.268Z,90.86
2023-04-01T12:00:27.232Z,90.86
2023-04-01T12:01:27.281Z,90.77
2023-04-01T12:02:27.213Z,90.45
2023-04-01T12:03:27.272Z,90.25
2023-04-01T12:04:27.158Z,89.94
2023-04-01T12:05:27.131Z,90.25
2023-04-01T12:06:27.254Z,90.70
2023-04-01T12:07:27.145Z,90.70
2023-04-01T12:08:27.306Z,90.91
2023-04-01T12:09:27.896Z,90.50
2023-04-01T12:10:27.168Z,90.39
2023-04-01T12:11:27.094Z,90.50
2023-04-01T12:12:27.078Z,90.60
2023-04-01T12:13:28.432Z,91.05
2023-04-01T12:14:27.053Z,91.05
2023-04-01T12:15:27.026Z,91.26
2023-04-01T12:16:27.093Z,91.26
2023-04-01T12:17:27.097Z,90.95
2023-04-01T12:18:27.019Z,90.95
2023-04-01T12:19:27.043Z,91.05
2023-04-01T12:20:26.982Z,91.11
2023-04-01T12:21:26.994Z,91.01
2023-04-01T12:22:26.954Z,91.22
2023-04-01T12:23:26.950Z,91.22
2023-04-01T12:24:26.937Z,91.73
2023-04-01T12:25:26.930Z,91.73
2023-04-01T12:26:26.953Z,91.01
2023-04-01T12:27:26.923Z,90.81
2023-04-01T12:28:26.888Z,91.11
2023-04-01T12:29:26.900Z,91.11
2023-04-01T12:30:26.889Z,91.11
2023-04-01T12:31:26.877Z,91.83
2023-04-01T12:32:26.965Z,91.52
2023-04-01T12:33:26.889Z,91.31
2023-04-01T12:34:27.776Z,91.22
2023-04-01T12:35:27.013Z,90.70
2023-04-01T12:36:26.859Z,91.01
2023-04-01T12:37:26.812Z,90.91
2023-04-01T12:38:26.841Z,90.60
2023-04-01T12:39:26.965Z,90.19
2023-04-01T12:40:26.771Z,89.98
2023-04-01T12:41:26.766Z,90.09
2023-04-01T12:42:26.744Z,90.60
2023-04-01T12:43:26.733Z,90.91
2023-04-01T12:44:26.733Z,90.50
2023-04-01T12:45:26.715Z,89.89
2023-04-01T12:46:26.896Z,89.68
2023-04-01T12:47:26.766Z,89.17
2023-04-01T12:48:26.742Z,89.68
2023-04-01T12:49:26.691Z,90.39
2023-04-01T12:50:26.668Z,90.19
2023-04-01T12:51:27.441Z,90.30
2023-04-01T12:52:27.137Z,89.98